Time;durP1;ratioP1;P1;durP2;ratioP2;P2;SDS_P1;SDS_P2;PMS_P1;PMS_P2;Temp;Humidity;BMP_temperature;BMP_pressure;BME280_temperature;BME280_humidity;BME280_pressure;Samples;Min_cycle;Max_cycle;Signal;HPM_P1;HPM_P2
2021/07/23 00:00:36;;;;;;;;;;;;;;;-142.75;66.53;77550.72;5092997;28;19916;-76
2021/07/23 00:03:01;;;;;;;;;;;;;;;-142.75;66.59;77542.84;5092873;28;20024;-75
2021/07/23 00:05:26;;;;;;;;;;;;;;;-142.75;66.95;77546.78;5092760;28;19916;-76
2021/07/23 00:07:51;;;;;;;;;;;;;;;-142.75;66.67;77550.72;5093258;28;20052;-76
2021/07/23 00:10:16;;;;;;;;;;;;;;;-142.75;67.10;77562.53;5092914;28;19969;-76
2021/07/23 00:12:42;;;;;;;;;;;;;;;-142.75;67.03;77566.47;5111225;28;19926;-75
2021/07/23 00:15:08;;;;;;;;;;;;;;;-142.75;67.31;77566.47;5111673;28;19957;-76
2021/07/23 00:17:33;;;;;;;;;;;;;;;-142.75;68.75;77576.31;5111140;28;19964;-75
2021/07/23 00:19:58;;;;;;;;;;;;;;;-142.75;68.65;77566.47;5092528;28;20329;-75
2021/07/23 00:22:23;;;;;;;;;;;;;;;-142.75;68.45;77564.50;5093510;28;20638;-75
2021/07/23 00:24:48;;;;;;;;;;;;;;;-142.75;68.17;77564.50;5111158;28;20341;-76
2021/07/23 00:27:14;;;;;;;;;;;;;;;-142.75;67.82;77556.63;5110906;28;19923;-75
2021/07/23 00:29:40;;;;;;;;;;;;;;;-142.75;67.87;77550.72;5111017;28;19974;-75
2021/07/23 00:32:05;;;;;;;;;;;;;;;-142.75;67.65;77554.66;5110749;28;19916;-75
2021/07/23 00:34:30;;;;;;;;;;;;;;;-142.75;67.33;77558.59;5110955;28;20381;-77
2021/07/23 00:36:55;;;;;;;;;;;;;;;-142.75;67.20;77564.50;5110492;28;19915;-76
2021/07/23 00:39:20;;;;;;;;;;;;;;;-142.75;67.76;77564.50;5110702;28;20479;-75
2021/07/23 00:41:46;;;;;;;;;;;;;;;-142.75;67.18;77578.28;5110529;28;19916;-75
2021/07/23 00:44:11;;;;;;;;;;;;;;;-142.75;67.32;77584.19;5110786;28;20501;-75
2021/07/23 00:46:37;;;;;;;;;;;;;;;-142.75;68.70;77582.22;5092391;28;19992;-75
2021/07/23 00:49:03;;;;;;;;;;;;;;;-142.75;68.37;77590.09;5092346;28;19920;-76
2021/07/23 00:51:28;;;;;;;;;;;;;;;-142.75;68.30;77601.91;5075704;28;20399;-76
2021/07/23 00:53:53;;;;;;;;;;;;;;;-142.75;68.57;77613.72;5113402;28;19915;-76
2021/07/23 00:56:18;;;;;;;;;;;;;;;-142.75;68.71;77611.75;5115006;28;20348;-76
2021/07/23 00:58:44;;;;;;;;;;;;;;;-142.75;68.58;77615.69;5114959;28;19964;-76
2021/07/23 01:01:09;;;;;;;;;;;;;;;-142.75;68.48;77615.69;5096630;28;19923;-76
2021/07/23 01:03:38;;;;;;;;;;;;;;;-142.75;68.86;77611.75;5097227;28;19965;-76
2021/07/23 01:06:03;;;;;;;;;;;;;;;-142.75;68.93;77621.59;5115488;28;19919;-75
2021/07/23 01:08:28;;;;;;;;;;;;;;;-142.75;69.40;77605.84;5097080;28;19916;-76
2021/07/23 01:10:53;;;;;;;;;;;;;;;-142.75;69.66;77596.00;5096608;28;19993;-76
2021/07/23 01:13:19;;;;;;;;;;;;;;;-142.75;69.31;77594.03;5115596;28;20006;-76
2021/07/23 01:15:44;;;;;;;;;;;;;;;-142.75;68.73;77609.78;5114888;28;19948;-76
2021/07/23 01:18:09;;;;;;;;;;;;;;;-142.75;69.17;77617.66;5115304;28;19915;-76
2021/07/23 01:20:35;;;;;;;;;;;;;;;-142.75;69.05;77623.56;5096767;28;19916;-75
2021/07/23 01:23:00;;;;;;;;;;;;;;;-142.75;69.38;77625.53;5116078;28;20022;-76
2021/07/23 01:25:30;;;;;;;;;;;;;;;-142.75;69.60;77621.59;5097437;28;20019;-76
2021/07/23 01:27:55;;;;;;;;;;;;;;;-142.75;69.64;77625.53;5097508;28;19916;-76
2021/07/23 01:30:21;;;;;;;;;;;;;;;-142.75;69.82;77619.63;5115090;28;19916;-76
2021/07/23 01:32:47;;;;;;;;;;;;;;;-142.75;70.09;77621.59;5096939;28;20344;-75
2021/07/23 01:35:12;;;;;;;;;;;;;;;-142.75;70.12;77613.72;5097223;28;19962;-75
2021/07/23 01:37:39;;;;;;;;;;;;;;;-142.75;69.88;77615.69;5096803;28;19922;-75
2021/07/23 01:40:05;;;;;;;;;;;;;;;-142.75;69.86;77613.72;5114388;28;19931;-75
2021/07/23 01:42:30;;;;;;;;;;;;;;;-142.75;69.64;77609.78;5094146;28;19916;-76
2021/07/23 01:44:55;;;;;;;;;;;;;;;-142.75;69.39;77615.69;5096207;28;19926;-75
2021/07/23 01:47:21;;;;;;;;;;;;;;;-142.75;69.41;77617.66;5114949;28;19916;-75
2021/07/23 01:49:46;;;;;;;;;;;;;;;-142.75;69.38;77621.59;5115538;28;20372;-76
2021/07/23 01:52:11;;;;;;;;;;;;;;;-142.75;69.07;77627.50;5114500;28;19915;-75
2021/07/23 01:54:36;;;;;;;;;;;;;;;-142.75;69.04;77625.53;5114636;28;20479;-75
2021/07/23 01:57:02;;;;;;;;;;;;;;;-142.75;69.03;77621.59;5096291;28;20391;-76
2021/07/23 01:59:28;;;;;;;;;;;;;;;-142.75;69.62;77617.66;5096427;28;19916;-76
2021/07/23 02:01:53;;;;;;;;;;;;;;;-142.75;69.64;77613.72;5115161;28;20049;-76
2021/07/23 02:04:18;;;;;;;;;;;;;;;-142.75;69.46;77623.56;5096082;28;19927;-75
2021/07/23 02:06:43;;;;;;;;;;;;;;;-142.75;69.58;77625.53;5113224;28;19931;-75
2021/07/23 02:09:08;;;;;;;;;;;;;;;-142.75;69.55;77631.44;5113673;28;19916;-76
2021/07/23 02:11:34;;;;;;;;;;;;;;;-142.75;69.87;77629.47;5113860;28;19922;-75
2021/07/23 02:14:01;;;;;;;;;;;;;;;-142.75;69.67;77633.41;5113828;28;19919;-75
2021/07/23 02:16:27;;;;;;;;;;;;;;;-142.75;69.67;77639.31;5113427;28;19915;-75
2021/07/23 02:18:52;;;;;;;;;;;;;;;-142.75;69.54;77645.22;5095357;28;19924;-75
2021/07/23 02:21:17;;;;;;;;;;;;;;;-142.75;69.50;77637.34;5112786;28;19947;-76
2021/07/23 02:23:42;;;;;;;;;;;;;;;-142.75;69.23;77637.34;5113820;28;19923;-76
2021/07/23 02:26:21;;;;;;;;;;;;;;;-142.75;69.49;77641.28;5094580;28;19977;-76
2021/07/23 02:28:46;;;;;;;;;;;;;;;-142.75;69.69;77637.34;5094667;28;19920;-75
2021/07/23 02:31:11;;;;;;;;;;;;;;;-142.75;69.84;77643.25;5094081;28;20346;-76
2021/07/23 02:33:36;;;;;;;;;;;;;;;-142.75;69.77;77645.22;5112877;28;19923;-76
2021/07/23 02:36:02;;;;;;;;;;;;;;;-142.75;69.88;77643.25;5112480;28;19981;-75
2021/07/23 02:38:27;;;;;;;;;;;;;;;-142.75;69.86;77641.28;5094611;28;20394;-76
2021/07/23 02:40:54;;;;;;;;;;;;;;;-142.75;69.50;77643.25;5094040;28;19965;-76
2021/07/23 02:43:20;;;;;;;;;;;;;;;-142.75;69.38;77645.22;5112240;28;19939;-75
2021/07/23 02:45:45;;;;;;;;;;;;;;;-142.75;69.61;77643.25;5093509;28;19916;-76
2021/07/23 02:48:11;;;;;;;;;;;;;;;-142.75;69.57;77645.22;5112285;28;19923;-75
2021/07/23 02:50:36;;;;;;;;;;;;;;;-142.75;69.49;77645.22;5093075;28;20454;-75
2021/07/23 02:53:02;;;;;;;;;;;;;;;-142.75;69.47;77653.09;5094561;28;20438;-76
2021/07/23 02:55:27;;;;;;;;;;;;;;;-142.75;69.58;77647.19;5093489;28;19924;-76
2021/07/23 02:57:52;;;;;;;;;;;;;;;-142.75;70.15;77649.16;5108659;28;19966;-75
2021/07/23 03:00:17;;;;;;;;;;;;;;;-142.75;69.77;77647.19;5092912;28;20385;-75
2021/07/23 03:02:42;;;;;;;;;;;;;;;-142.75;69.65;77643.25;5111365;28;19924;-75
2021/07/23 03:05:08;;;;;;;;;;;;;;;-142.75;69.93;77641.28;5092848;28;19916;-75
2021/07/23 03:07:33;;;;;;;;;;;;;;;-142.75;69.96;77645.22;5092694;28;19965;-76
2021/07/23 03:09:58;;;;;;;;;;;;;;;-142.75;70.23;77643.25;5110796;28;19924;-75
2021/07/23 03:12:23;;;;;;;;;;;;;;;-142.75;70.27;77649.16;5111035;28;19965;-75
2021/07/23 03:14:48;;;;;;;;;;;;;;;-142.75;70.48;77649.16;5092725;28;20003;-75
2021/07/23 03:17:13;;;;;;;;;;;;;;;-142.75;70.83;77639.31;5110138;28;19984;-74
2021/07/23 03:19:39;;;;;;;;;;;;;;;-142.75;70.69;77637.34;5110979;28;19916;-75
2021/07/23 03:22:04;;;;;;;;;;;;;;;-142.75;70.74;77621.59;5110696;28;20258;-75
2021/07/23 03:24:29;;;;;;;;;;;;;;;-142.75;70.94;77617.66;5111460;28;19927;-75
2021/07/23 03:26:54;;;;;;;;;;;;;;;-142.75;71.05;77605.84;5092681;28;19916;-75
2021/07/23 03:29:20;;;;;;;;;;;;;;;-142.75;71.17;77594.03;5092687;28;20304;-75
2021/07/23 03:31:45;;;;;;;;;;;;;;;-142.75;71.47;77594.03;5110620;28;19916;-75
2021/07/23 03:34:10;;;;;;;;;;;;;;;-142.75;71.57;77588.13;5092846;28;20015;-75
2021/07/23 03:36:35;;;;;;;;;;;;;;;-142.75;71.59;77590.09;5110645;28;19916;-75
2021/07/23 03:39:00;;;;;;;;;;;;;;;-142.75;71.62;77582.22;5092912;28;19920;-75
2021/07/23 03:41:25;;;;;;;;;;;;;;;-142.75;72.42;77574.34;5092756;28;20298;-76
2021/07/23 03:43:51;;;;;;;;;;;;;;;-142.75;72.20;77570.41;5111123;28;19924;-75
2021/07/23 03:46:16;;;;;;;;;;;;;;;-142.75;72.07;77570.41;5111308;28;20365;-75
2021/07/23 03:48:41;;;;;;;;;;;;;;;-142.75;71.97;77574.34;5110759;28;19968;-76
2021/07/23 03:51:06;;;;;;;;;;;;;;;-142.75;72.03;77584.19;5110595;28;20364;-75
2021/07/23 03:53:31;;;;;;;;;;;;;;;-142.75;71.87;77580.25;5112073;28;19916;-75
2021/07/23 03:55:56;;;;;;;;;;;;;;;-142.75;72.23;77564.50;5092874;28;20344;-75
2021/07/23 03:58:23;;;;;;;;;;;;;;;-142.75;72.24;77570.41;5110786;28;20014;-75
2021/07/23 04:00:48;;;;;;;;;;;;;;;-142.75;72.41;77564.50;5110710;28;19984;-75
2021/07/23 04:03:13;;;;;;;;;;;;;;;-142.75;72.51;77550.72;5110803;28;20381;-75
2021/07/23 04:05:38;;;;;;;;;;;;;;;-142.75;72.27;77542.84;5110494;28;19939;-76
2021/07/23 04:08:04;;;;;;;;;;;;;;;-142.75;72.22;77531.03;5111247;28;20029;-76
2021/07/23 04:10:29;;;;;;;;;;;;;;;-142.75;72.33;77519.22;5111103;28;19915;-76
2021/07/23 04:12:54;;;;;;;;;;;;;;;-142.75;72.60;77511.34;5110653;28;20419;-76
2021/07/23 04:15:19;;;;;;;;;;;;;;;-142.75;72.51;77513.31;5092763;28;20377;-76
2021/07/23 04:17:45;;;;;;;;;;;;;;;-142.75;72.30;77509.38;5092719;28;19916;-76
2021/07/23 04:20:10;;;;;;;;;;;;;;;-142.75;72.48;77503.47;5110620;28;20391;-75
2021/07/23 04:22:35;;;;;;;;;;;;;;;-142.75;72.65;77487.72;5093573;28;19969;-76
2021/07/23 04:25:01;;;;;;;;;;;;;;;-142.75;72.85;77471.97;5092621;28;19920;-76
2021/07/23 04:27:26;;;;;;;;;;;;;;;-142.75;72.82;77468.03;5092571;28;19915;-75
2021/07/23 04:29:51;;;;;;;;;;;;;;;-142.75;72.49;77456.22;5115004;28;19919;-75
2021/07/23 04:32:16;;;;;;;;;;;;;;;-142.75;72.63;77454.25;5097737;28;19976;-76
2021/07/23 04:34:41;;;;;;;;;;;;;;;-142.75;72.73;77438.47;5097184;28;20299;-75
2021/07/23 04:37:07;;;;;;;;;;;;;;;-142.75;72.71;77430.59;5142748;22;19930;-76
2021/07/23 04:39:32;;;;;;;;;;;;;;;-142.75;72.79;77424.69;5119042;27;19931;-76
2021/07/23 04:41:57;;;;;;;;;;;;;;;-142.75;72.94;77424.69;5127045;27;19922;-75
2021/07/23 04:44:22;;;;;;;;;;;;;;;-142.75;72.95;77420.75;5127150;27;20009;-76
2021/07/23 04:46:47;;;;;;;;;;;;;;;-142.75;72.73;77399.09;5120691;27;19915;-76
2021/07/23 04:49:13;;;;;;;;;;;;;;;-142.75;72.59;77397.13;5113805;28;19922;-77
2021/07/23 04:51:38;;;;;;;;;;;;;;;-142.75;72.56;77383.34;5095061;28;19916;-77
2021/07/23 04:54:03;;;;;;;;;;;;;;;-142.75;72.34;77381.38;5096903;28;19924;-76
2021/07/23 04:56:28;;;;;;;;;;;;;;;-142.75;72.18;77371.53;5113473;28;19951;-75
2021/07/23 04:58:53;;;;;;;;;;;;;;;-142.75;71.80;77355.78;5095257;28;19923;-76
2021/07/23 05:01:18;;;;;;;;;;;;;;;-142.75;71.40;77343.97;5113346;28;19923;-77
2021/07/23 05:03:44;;;;;;;;;;;;;;;-142.75;71.05;77326.25;5113494;28;19920;-77
2021/07/23 05:06:09;;;;;;;;;;;;;;;-142.75;70.82;77318.38;5113369;28;19965;-77
2021/07/23 05:08:35;;;;;;;;;;;;;;;-142.75;70.73;77304.59;5095520;28;20016;-77
2021/07/23 05:11:01;;;;;;;;;;;;;;;-142.75;70.44;77306.56;5094594;28;20347;-76
2021/07/23 05:13:28;;;;;;;;;;;;;;;-142.75;70.27;77286.88;5095159;28;19916;-76
2021/07/23 05:15:53;;;;;;;;;;;;;;;-142.75;70.12;77282.94;5112915;28;19915;-77
2021/07/23 05:18:19;;;;;;;;;;;;;;;-142.75;69.99;77271.13;5094838;28;19999;-77
2021/07/23 05:20:44;;;;;;;;;;;;;;;-142.75;69.98;77269.16;5112863;28;20416;-77
2021/07/23 05:23:10;;;;;;;;;;;;;;;-142.75;69.78;77271.13;5095791;28;19930;-76
2021/07/23 05:25:36;;;;;;;;;;;;;;;-142.75;69.73;77267.19;5094900;28;19972;-76
2021/07/23 05:28:01;;;;;;;;;;;;;;;-142.75;69.22;77267.19;5113224;28;19922;-76
2021/07/23 05:30:27;;;;;;;;;;;;;;;-142.75;69.13;77247.50;5112759;28;19998;-76
2021/07/23 05:32:52;;;;;;;;;;;;;;;-142.75;68.89;77243.56;5113007;28;19923;-77
2021/07/23 05:35:17;;;;;;;;;;;;;;;-142.75;68.68;77235.69;5109819;28;19915;-76
2021/07/23 05:37:42;;;;;;;;;;;;;;;-142.75;68.45;77229.78;5112866;28;20369;-76
2021/07/23 05:40:08;;;;;;;;;;;;;;;-142.75;67.96;77217.97;5111926;28;20011;-76
2021/07/23 05:42:33;;;;;;;;;;;;;;;-142.75;67.38;77217.97;5113690;28;19922;-76
2021/07/23 05:44:58;;;;;;;;;;;;;;;-142.75;67.10;77208.13;5094336;28;19927;-77
2021/07/23 05:47:23;;;;;;;;;;;;;;;-142.75;66.98;77204.19;5113491;28;20347;-77
2021/07/23 05:49:49;;;;;;;;;;;;;;;-142.75;66.83;77194.34;5093707;28;19916;-75
2021/07/23 05:52:14;;;;;;;;;;;;;;;-142.75;66.53;77194.34;5094805;28;20422;-76
2021/07/23 05:54:39;;;;;;;;;;;;;;;-142.75;65.99;77194.34;5095033;28;19968;-76
2021/07/23 05:57:04;;;;;;;;;;;;;;;-142.75;66.36;77198.28;5112186;28;19960;-76
2021/07/23 05:59:30;;;;;;;;;;;;;;;-142.75;66.23;77188.44;5093597;28;20393;-76
2021/07/23 06:01:55;;;;;;;;;;;;;;;-142.75;64.93;77178.59;5111555;28;19930;-76
2021/07/23 06:04:20;;;;;;;;;;;;;;;-142.75;64.84;77170.72;5108730;28;19920;-75
2021/07/23 06:06:45;;;;;;;;;;;;;;;-142.75;64.63;77154.97;5093433;28;20369;-75
2021/07/23 06:09:11;;;;;;;;;;;;;;;-142.75;64.78;77143.16;5093497;28;19915;-76
2021/07/23 06:11:39;;;;;;;;;;;;;;;-142.75;64.03;77131.34;5093544;28;20321;-77
2021/07/23 06:14:04;;;;;;;;;;;;;;;-142.75;63.63;77115.59;5111677;28;20295;-75
2021/07/23 06:16:30;;;;;;;;;;;;;;;-142.75;62.52;77115.59;5111622;28;19915;-76
2021/07/23 06:18:55;;;;;;;;;;;;;;;-142.75;63.21;77113.63;5111203;28;19919;-76
2021/07/23 06:21:21;;;;;;;;;;;;;;;-142.75;64.01;77109.69;5091624;28;19930;-75
2021/07/23 06:23:46;;;;;;;;;;;;;;;-142.75;62.96;77109.69;5092805;28;19919;-76
2021/07/23 06:26:12;;;;;;;;;;;;;;;-142.75;63.33;77113.63;5109923;28;20002;-75
2021/07/23 06:28:37;;;;;;;;;;;;;;;-142.75;62.63;77113.63;5110330;28;19916;-75
2021/07/23 06:31:03;;;;;;;;;;;;;;;-142.75;64.01;77113.63;5091655;28;20383;-75
2021/07/23 06:33:28;;;;;;;;;;;;;;;-142.75;63.88;77103.78;5110020;28;19916;-76
2021/07/23 06:35:54;;;;;;;;;;;;;;;-142.75;62.28;77107.72;5091496;28;20006;-75
2021/07/23 06:38:19;;;;;;;;;;;;;;;-142.75;63.16;77107.72;5109865;28;20010;-75
2021/07/23 06:40:44;;;;;;;;;;;;;;;-142.75;63.24;77101.81;5109543;28;20006;-75
2021/07/23 06:43:10;;;;;;;;;;;;;;;-142.75;62.25;77105.75;5091484;28;19931;-75
2021/07/23 06:45:35;;;;;;;;;;;;;;;-142.75;61.91;77113.63;5109892;28;20373;-75
2021/07/23 06:48:00;;;;;;;;;;;;;;;-142.75;62.85;77103.78;5109752;28;20457;-76
2021/07/23 06:50:26;;;;;;;;;;;;;;;-142.75;62.78;77113.63;5109296;28;19916;-74
2021/07/23 06:52:51;;;;;;;;;;;;;;;-142.75;62.21;77121.50;5092100;28;20380;-75
2021/07/23 06:55:16;;;;;;;;;;;;;;;-142.75;62.07;77101.81;5088472;28;19930;-76
2021/07/23 06:57:41;;;;;;;;;;;;;;;-142.75;61.74;77095.91;5085162;28;19915;-75
2021/07/23 07:00:07;;;;;;;;;;;;;;;-142.75;62.21;77086.06;5109420;28;19923;-75
2021/07/23 07:02:32;;;;;;;;;;;;;;;-142.75;61.69;77076.22;5109623;28;20012;-75
2021/07/23 07:04:58;;;;;;;;;;;;;;;-142.75;61.65;77070.31;5109230;28;19919;-75
2021/07/23 07:07:23;;;;;;;;;;;;;;;-142.75;60.77;77086.06;5109926;28;19931;-74
2021/07/23 07:09:48;;;;;;;;;;;;;;;-142.75;60.86;77101.81;5091775;28;19960;-75
2021/07/23 07:12:14;;;;;;;;;;;;;;;-142.75;62.05;77084.09;5092078;28;19915;-76
2021/07/23 07:14:39;;;;;;;;;;;;;;;-142.75;61.29;77064.41;5111389;28;19916;-73
2021/07/23 07:17:04;;;;;;;;;;;;;;;-142.75;60.32;77097.88;5093398;28;19954;-76
2021/07/23 07:19:29;;;;;;;;;;;;;;;-142.75;61.43;77117.56;5110939;28;19919;-75
2021/07/23 07:21:54;;;;;;;;;;;;;;;-142.75;61.61;77125.44;5110366;28;19924;-76
2021/07/23 07:24:20;;;;;;;;;;;;;;;-142.75;62.21;77125.44;5111384;28;20317;-75
2021/07/23 07:26:46;;;;;;;;;;;;;;;-142.75;62.43;77113.63;5110331;28;19967;-75
2021/07/23 07:29:12;;;;;;;;;;;;;;;-142.75;61.37;77101.81;5110654;28;20408;-76
2021/07/23 07:31:37;;;;;;;;;;;;;;;-142.75;62.24;77082.13;5091908;28;19938;-75
2021/07/23 07:34:02;;;;;;;;;;;;;;;-142.75;61.53;77066.38;5110472;28;19923;-76
2021/07/23 07:36:28;;;;;;;;;;;;;;;-142.75;61.47;77052.59;5091574;28;19916;-75
2021/07/23 07:38:53;;;;;;;;;;;;;;;-142.75;61.31;77034.88;5110127;28;20339;-76
2021/07/23 07:41:19;;;;;;;;;;;;;;;-142.75;60.44;77015.19;5091889;28;20305;-75
2021/07/23 07:43:44;;;;;;;;;;;;;;;-142.75;59.63;77042.75;5110250;28;20311;-75
2021/07/23 07:46:09;;;;;;;;;;;;;;;-142.75;60.71;77058.50;5110097;28;19958;-75
2021/07/23 07:48:34;;;;;;;;;;;;;;;-142.75;61.25;77068.34;5110488;28;19977;-75
2021/07/23 07:51:00;;;;;;;;;;;;;;;-142.75;61.47;77030.94;5109364;28;19923;-74
2021/07/23 07:53:25;;;;;;;;;;;;;;;-142.75;61.40;77013.22;5092612;28;20429;-76
2021/07/23 07:55:50;;;;;;;;;;;;;;;-142.75;60.63;77003.38;5092204;28;19916;-75
2021/07/23 07:58:15;;;;;;;;;;;;;;;-142.75;60.03;76993.53;5110239;28;19916;-76
2021/07/23 08:00:40;;;;;;;;;;;;;;;-142.75;60.37;76975.81;5109778;28;19916;-77
2021/07/23 08:03:06;;;;;;;;;;;;;;;-142.75;60.13;76975.81;5111607;28;19931;-76
2021/07/23 08:05:31;;;;;;;;;;;;;;;-142.75;59.22;77005.34;5095821;28;20006;-76
2021/07/23 08:07:59;;;;;;;;;;;;;;;-142.75;59.94;77030.94;5114114;28;19922;-75
2021/07/23 08:10:27;;;;;;;;;;;;;;;-142.75;60.13;77048.66;5095875;28;19964;-77
2021/07/23 08:12:52;;;;;;;;;;;;;;;-142.75;60.26;77042.75;5114191;28;19922;-74
2021/07/23 08:15:18;;;;;;;;;;;;;;;-142.75;60.56;77042.75;5114512;28;19915;-76
2021/07/23 08:17:43;;;;;;;;;;;;;;;-142.75;60.33;77019.13;5114302;28;20285;-75
2021/07/23 08:20:09;;;;;;;;;;;;;;;-142.75;60.83;76995.50;5113723;28;20281;-77
2021/07/23 08:22:34;;;;;;;;;;;;;;;-142.75;61.00;76997.47;5114509;28;19919;-77
2021/07/23 08:25:00;;;;;;;;;;;;;;;-142.75;60.19;76962.03;5114589;28;20389;-76
2021/07/23 08:27:25;;;;;;;;;;;;;;;-142.75;59.99;76934.47;5096241;28;19915;-76
2021/07/23 08:29:50;;;;;;;;;;;;;;;-142.75;58.96;76902.97;5095198;28;19916;-75
2021/07/23 08:32:15;;;;;;;;;;;;;;;-142.75;58.29;76922.66;5114330;28;20404;-77
2021/07/23 08:34:41;;;;;;;;;;;;;;;-142.75;59.36;76946.28;5115715;28;19922;-76
2021/07/23 08:37:07;;;;;;;;;;;;;;;-142.75;59.19;76914.78;5095073;28;19919;-76
2021/07/23 08:39:32;;;;;;;;;;;;;;;-142.75;57.32;76901.00;5113682;28;19916;-75
2021/07/23 08:41:57;;;;;;;;;;;;;;;-142.75;58.23;76857.69;5094752;28;19919;-76
2021/07/23 08:44:25;;;;;;;;;;;;;;;-142.75;58.02;76822.25;5113354;28;19927;-76
2021/07/23 08:46:50;;;;;;;;;;;;;;;-142.75;57.17;76802.56;5095267;28;19926;-76
2021/07/23 08:49:16;;;;;;;;;;;;;;;-142.75;57.01;76780.94;5095959;28;19923;-77
2021/07/23 08:51:47;;;;;;;;;;;;;;;-142.75;56.91;76765.19;5110463;28;19938;-77
2021/07/23 08:54:12;;;;;;;;;;;;;;;-142.75;55.49;76759.28;5095910;28;19955;-75
2021/07/23 08:56:43;;;;;;;;;;;;;;;-142.75;55.65;76814.38;5113325;28;19947;-74
2021/07/23 08:59:08;;;;;;;;;;;;;;;-142.75;56.76;76869.50;5113541;28;19922;-76
2021/07/23 09:02:06;;;;;;;;;;;;;;;-142.75;57.07;76873.44;5113174;28;19916;-75
2021/07/23 09:04:32;;;;;;;;;;;;;;;-142.75;56.70;76806.50;5056658;28;19920;-76
2021/07/23 09:07:26;;;;;;;;;;;;;;;-142.75;56.60;76778.97;5113336;28;19920;-77
2021/07/23 09:09:56;;;;;;;;;;;;;;;-142.75;55.29;76735.66;5111609;28;20307;-77
2021/07/23 09:12:21;;;;;;;;;;;;;;;-142.75;55.87;76712.03;5094121;28;19915;-76
2021/07/23 09:14:46;;;;;;;;;;;;;;;-142.75;53.73;76708.09;5113098;28;20309;-76
2021/07/23 09:17:11;;;;;;;;;;;;;;;-142.75;55.01;76700.22;5112566;28;19916;-76
2021/07/23 09:19:40;;;;;;;;;;;;;;;-142.75;55.67;76666.75;5094447;28;20293;-76
2021/07/23 09:22:05;;;;;;;;;;;;;;;-142.75;53.82;76692.34;5112105;28;19923;-76
2021/07/23 09:24:49;;;;;;;;;;;;;;;-142.75;54.37;76706.13;5095919;28;19919;-75
2021/07/23 09:27:34;;;;;;;;;;;;;;;-142.75;55.55;76721.88;5110505;28;20293;-76
2021/07/23 09:30:01;;;;;;;;;;;;;;;-142.75;55.46;76684.47;5091915;28;19916;-76
2021/07/23 09:32:27;;;;;;;;;;;;;;;-142.75;54.74;76660.84;5112613;28;19916;-76
2021/07/23 09:35:06;;;;;;;;;;;;;;;-142.75;55.11;76633.28;5093895;28;19923;-77
2021/07/23 09:37:31;;;;;;;;;;;;;;;-142.75;53.65;76609.66;5093993;28;19924;-76
2021/07/23 09:39:57;;;;;;;;;;;;;;;-142.75;54.08;76635.25;5112317;28;19972;-76
2021/07/23 09:42:22;;;;;;;;;;;;;;;-142.75;54.63;76635.25;5111781;28;19922;-76
2021/07/23 09:44:47;;;;;;;;;;;;;;;-142.75;54.84;76607.69;5111587;28;19920;-75
2021/07/23 09:47:23;;;;;;;;;;;;;;;-142.75;53.97;76582.09;5093288;28;20012;-76
2021/07/23 09:49:49;;;;;;;;;;;;;;;-142.75;52.97;76572.25;5112020;28;20346;-75
2021/07/23 09:52:14;;;;;;;;;;;;;;;-142.75;53.90;76676.59;5112467;28;19924;-77
2021/07/23 09:54:40;;;;;;;;;;;;;;;-142.75;55.28;76704.16;5112832;28;19934;-76
2021/07/23 09:57:06;;;;;;;;;;;;;;;-142.75;55.09;76684.47;5112237;28;19923;-77
2021/07/23 09:59:31;;;;;;;;;;;;;;;-142.75;54.75;76652.97;5112089;28;19915;-77
2021/07/23 10:01:59;;;;;;;;;;;;;;;-142.75;54.22;76625.41;5111604;28;19967;-77
2021/07/23 10:04:30;;;;;;;;;;;;;;;-142.75;52.58;76619.50;5112104;28;20023;-75
2021/07/23 10:07:09;;;;;;;;;;;;;;;-142.75;53.40;76643.13;5094236;28;19923;-76
2021/07/23 10:09:36;;;;;;;;;;;;;;;-142.75;54.07;76619.50;5109538;28;19916;-75
2021/07/23 10:12:01;;;;;;;;;;;;;;;-142.75;53.99;76670.69;5093115;28;20331;-75
2021/07/23 10:14:29;;;;;;;;;;;;;;;-142.75;55.14;76664.78;5111607;28;19923;-76
2021/07/23 10:16:54;;;;;;;;;;;;;;;-142.75;54.52;76645.09;5091035;28;19915;-75
2021/07/23 10:19:22;;;;;;;;;;;;;;;-142.75;53.28;76625.41;5111983;28;20476;-75
2021/07/23 10:21:48;;;;;;;;;;;;;;;-142.75;54.25;76629.34;5112273;28;19946;-76
2021/07/23 10:24:15;;;;;;;;;;;;;;;-142.75;54.46;76645.09;5095176;28;19920;-76
2021/07/23 10:26:41;;;;;;;;;;;;;;;-142.75;53.56;76611.63;5094889;28;20668;-75
2021/07/23 10:29:07;;;;;;;;;;;;;;;-142.75;54.60;76658.88;5113511;28;20008;-76
2021/07/23 10:31:32;;;;;;;;;;;;;;;-142.75;54.47;76605.72;5113134;28;19932;-77
2021/07/23 10:33:58;;;;;;;;;;;;;;;-142.75;53.41;76538.78;5113435;28;19920;-76
2021/07/23 10:36:26;;;;;;;;;;;;;;;-142.75;52.56;76487.63;5095776;28;19916;-76
2021/07/23 10:39:06;;;;;;;;;;;;;;;-142.75;51.57;76412.81;5112959;28;20377;-76
2021/07/23 10:41:32;;;;;;;;;;;;;;;-142.75;49.48;76395.09;5094550;28;19919;-76
2021/07/23 10:43:57;;;;;;;;;;;;;;;-142.75;51.55;76373.44;5113311;28;19934;-76
2021/07/23 10:46:41;;;;;;;;;;;;;;;-142.75;49.76;76251.41;5112583;28;19915;-77
2021/07/23 10:49:06;;;;;;;;;;;;;;;-142.75;48.20;76215.97;5113078;28;19923;-77
2021/07/23 10:51:50;;;;;;;;;;;;;;;-142.75;46.16;76099.84;5112749;28;19915;-76
2021/07/23 10:54:17;;;;;;;;;;;;;;;-142.75;46.21;75975.84;5094696;28;20300;-76
2021/07/23 10:57:03;;;;;;;;;;;;;;;-142.75;44.74;75920.75;5094808;28;20296;-77
2021/07/23 10:59:40;;;;;;;;;;;;;;;-142.75;43.02;75999.47;5095037;28;20395;-76
2021/07/23 11:02:15;;;;;;;;;;;;;;;-142.75;45.46;76233.69;5112337;28;19961;-77
2021/07/23 11:04:43;;;;;;;;;;;;;;;-142.75;47.12;76239.59;5109454;28;20024;-77
2021/07/23 11:07:09;;;;;;;;;;;;;;;-142.75;47.20;76273.06;5112367;28;19923;-76
2021/07/23 11:09:35;;;;;;;;;;;;;;;-142.75;46.01;76282.91;5093954;28;20361;-77
2021/07/23 11:12:16;;;;;;;;;;;;;;;-142.75;47.99;76310.47;5112151;28;19924;-76
2021/07/23 11:14:41;;;;;;;;;;;;;;;-142.75;47.92;76349.81;5112214;28;19924;-76
2021/07/23 11:17:08;;;;;;;;;;;;;;;-142.75;49.82;76349.81;5094109;28;19915;-76
2021/07/23 11:19:33;;;;;;;;;;;;;;;-142.75;48.59;76361.63;5094116;28;20408;-76
2021/07/23 11:21:59;;;;;;;;;;;;;;;-142.75;47.49;76308.50;5111578;28;19916;-77
2021/07/23 11:24:32;;;;;;;;;;;;;;;-142.75;47.40;76375.41;5111984;28;19920;-76
2021/07/23 11:26:57;;;;;;;;;;;;;;;-142.75;49.46;76422.66;5112038;28;19973;-76
2021/07/23 11:29:41;;;;;;;;;;;;;;;-142.75;49.66;76464.00;5093889;28;19915;-76
2021/07/23 11:32:08;;;;;;;;;;;;;;;-142.75;49.35;76458.09;5111836;28;19968;-76
2021/07/23 11:34:37;;;;;;;;;;;;;;;-142.75;49.62;76397.06;5112237;28;19915;-76
2021/07/23 11:37:13;;;;;;;;;;;;;;;-142.75;48.79;76357.69;5093154;28;19916;-75
2021/07/23 11:39:55;;;;;;;;;;;;;;;-142.75;46.95;76312.44;5109509;28;19916;-76
2021/07/23 11:42:20;;;;;;;;;;;;;;;-142.75;48.31;76365.56;5093697;28;20000;-76
2021/07/23 11:45:04;;;;;;;;;;;;;;;-142.75;49.47;76347.84;5111751;28;19971;-76
2021/07/23 11:47:34;;;;;;;;;;;;;;;-142.75;49.32;76361.63;5112421;28;20333;-77
2021/07/23 11:50:05;;;;;;;;;;;;;;;-142.75;49.66;76347.84;5093356;28;19916;-77
2021/07/23 11:52:31;;;;;;;;;;;;;;;-142.75;50.01;76391.16;5111790;28;19959;-77
2021/07/23 11:55:01;;;;;;;;;;;;;;;-142.75;49.12;76375.41;5111824;28;20673;-76
2021/07/23 11:57:30;;;;;;;;;;;;;;;-142.75;49.83;76440.38;5111909;28;20345;-76
2021/07/23 11:59:55;;;;;;;;;;;;;;;-142.75;51.27;76456.13;5112334;28;20368;-76
2021/07/23 12:02:27;;;;;;;;;;;;;;;-142.75;49.49;76416.75;5093568;28;19951;-75
2021/07/23 12:05:09;;;;;;;;;;;;;;;-142.75;49.64;76385.25;5111527;28;21291;-76
2021/07/23 12:07:35;;;;;;;;;;;;;;;-142.75;48.59;76369.50;5094351;28;19930;-76
2021/07/23 12:10:01;;;;;;;;;;;;;;;-142.75;48.46;76393.13;5112512;28;19919;-75
2021/07/23 12:12:26;;;;;;;;;;;;;;;-142.75;49.42;76371.47;5111719;28;19945;-76
2021/07/23 12:14:51;;;;;;;;;;;;;;;-142.75;49.06;76314.41;5111823;28;19968;-77
2021/07/23 12:17:17;;;;;;;;;;;;;;;-142.75;48.72;76298.66;5093267;28;21189;-76
2021/07/23 12:19:42;;;;;;;;;;;;;;;-142.75;49.13;76239.59;5111079;28;20390;-74
2021/07/23 12:22:11;;;;;;;;;;;;;;;-142.75;47.74;76160.88;5092903;28;20346;-75
2021/07/23 12:24:36;;;;;;;;;;;;;;;-142.75;45.89;76127.41;5093514;28;19972;-77